createdAt,value
2023-03-11T00:01:11.874Z,99.90
2023-03-11T00:03:39.488Z,99.90
2023-03-11T00:06:07.623Z,99.90
2023-03-11T00:08:35.183Z,99.90
2023-03-11T00:11:02.608Z,99.90
2023-03-11T00:13:30.619Z,99.90
2023-03-11T00:15:59.754Z,99.90
2023-03-11T00:18:31.413Z,99.90
2023-03-11T00:21:00.466Z,99.90
2023-03-11T00:23:28.246Z,99.90
2023-03-11T00:25:55.856Z,99.90
2023-03-11T00:28:26.099Z,99.90
2023-03-11T00:30:54.030Z,99.90
2023-03-11T00:33:21.425Z,99.90
2023-03-11T00:35:50.930Z,99.90
2023-03-11T00:38:22.580Z,99.90
2023-03-11T00:40:50.309Z,99.90
2023-03-11T00:43:18.099Z,99.90
2023-03-11T00:45:45.789Z,99.90
2023-03-11T00:48:16.001Z,99.90
2023-03-11T00:50:44.225Z,99.90
2023-03-11T00:53:12.331Z,99.90
2023-03-11T00:55:40.945Z,99.90
2023-03-11T00:58:12.691Z,99.90
2023-03-11T01:00:47.588Z,99.90
2023-03-11T01:03:15.348Z,99.90
2023-03-11T01:05:43.316Z,99.90
2023-03-11T01:08:11.126Z,99.90
2023-03-11T01:10:38.756Z,99.90
2023-03-11T01:13:06.596Z,99.90
2023-03-11T01:15:37.656Z,99.90
2023-03-11T01:18:06.967Z,99.90
2023-03-11T01:20:37.410Z,99.90
2023-03-11T01:23:07.639Z,99.90
2023-03-11T01:25:34.992Z,99.90
2023-03-11T01:28:02.919Z,99.90
2023-03-11T01:30:31.604Z,99.90
2023-03-11T01:32:58.883Z,99.90
2023-03-11T01:35:29.562Z,99.90
2023-03-11T01:37:57.946Z,99.90
2023-03-11T01:40:54.954Z,99.90
2023-03-11T01:43:46.001Z,99.90
2023-03-11T01:46:25.919Z,99.90
2023-03-11T01:49:00.236Z,99.90
2023-03-11T01:51:36.062Z,99.90
2023-03-11T01:54:27.238Z,99.90
2023-03-11T01:56:55.894Z,99.90
2023-03-11T01:59:30.470Z,99.90
2023-03-11T02:02:34.015Z,99.90
2023-03-11T02:05:03.893Z,99.90
2023-03-11T02:07:33.477Z,99.90
2023-03-11T02:10:02.338Z,99.90
2023-03-11T02:12:34.729Z,99.90
2023-03-11T02:15:03.440Z,99.90
2023-03-11T02:17:31.946Z,99.90
2023-03-11T02:20:02.089Z,99.90
2023-03-11T02:22:33.412Z,99.90
2023-03-11T02:25:20.825Z,99.90
2023-03-11T02:27:52.581Z,99.90
2023-03-11T02:30:25.485Z,99.90
2023-03-11T02:32:54.973Z,99.90
2023-03-11T02:35:24.477Z,99.90
2023-03-11T02:37:54.692Z,99.90
2023-03-11T02:40:31.695Z,99.90
2023-03-11T02:43:08.488Z,99.90
2023-03-11T02:45:37.073Z,99.90
2023-03-11T02:48:09.326Z,99.90
2023-03-11T02:50:37.437Z,99.90
2023-03-11T02:53:06.633Z,99.90
2023-03-11T02:55:34.139Z,99.90
2023-03-11T02:58:01.474Z,99.90
2023-03-11T03:00:28.587Z,99.90
2023-03-11T03:03:01.399Z,99.90
2023-03-11T03:05:28.986Z,99.90
2023-03-11T03:07:58.201Z,99.90
2023-03-11T03:10:25.621Z,99.90
2023-03-11T03:12:53.090Z,99.90
2023-03-11T03:15:20.317Z,99.90
2023-03-11T03:17:47.517Z,99.90
2023-03-11T03:20:15.112Z,99.90
2023-03-11T03:22:47.655Z,99.90
2023-03-11T03:25:17.764Z,99.90
2023-03-11T03:27:45.297Z,99.90
2023-03-11T03:30:13.573Z,99.90
2023-03-11T03:32:41.650Z,99.90
2023-03-11T03:35:12.443Z,99.90
2023-03-11T03:37:55.255Z,99.90
2023-03-11T03:40:23.580Z,99.90
2023-03-11T03:42:52.298Z,99.90
2023-03-11T03:45:20.287Z,99.90
2023-03-11T03:47:49.105Z,99.90
2023-03-11T03:50:18.287Z,99.90
2023-03-11T03:52:48.675Z,99.90
2023-03-11T03:55:16.787Z,99.90
2023-03-11T03:57:43.925Z,99.90
2023-03-11T04:00:14.003Z,99.90
2023-03-11T04:02:41.825Z,99.90
2023-03-11T04:05:17.703Z,99.90
2023-03-11T04:07:45.855Z,99.90
2023-03-11T04:10:14.312Z,99.90
2023-03-11T04:12:42.428Z,99.90
2023-03-11T04:15:10.704Z,99.90
2023-03-11T04:17:39.324Z,99.90
2023-03-11T04:20:08.288Z,99.90
2023-03-11T04:22:36.470Z,99.90
2023-03-11T04:25:04.920Z,99.90
2023-03-11T04:27:33.605Z,99.90
2023-03-11T04:30:03.513Z,99.90
2023-03-11T04:32:32.179Z,99.90
2023-03-11T04:34:59.550Z,99.90
2023-03-11T04:37:30.554Z,99.90
2023-03-11T04:39:58.428Z,99.90
2023-03-11T04:42:25.625Z,99.90
2023-03-11T04:44:53.722Z,99.90
2023-03-11T04:47:21.952Z,99.90
2023-03-11T04:49:49.537Z,99.90
2023-03-11T04:52:17.258Z,99.90
2023-03-11T04:54:44.496Z,99.90
2023-03-11T04:57:11.885Z,99.90
2023-03-11T04:59:42.846Z,99.90
2023-03-11T05:02:12.848Z,99.90
2023-03-11T05:04:45.304Z,99.90
2023-03-11T05:07:15.010Z,99.90
2023-03-11T05:09:42.949Z,99.90
2023-03-11T05:12:12.529Z,99.90
2023-03-11T05:14:41.374Z,99.90
2023-03-11T05:17:10.062Z,99.90
2023-03-11T05:19:37.907Z,99.90
2023-03-11T05:22:11.256Z,99.90
2023-03-11T05:24:39.032Z,99.90
2023-03-11T05:27:06.546Z,99.90
2023-03-11T05:29:35.724Z,99.90
2023-03-11T05:32:03.174Z,99.90
2023-03-11T05:34:30.570Z,99.90
2023-03-11T05:36:58.203Z,99.90
2023-03-11T05:39:26.004Z,99.90
2023-03-11T05:41:53.174Z,99.90
2023-03-11T05:44:21.060Z,99.90
2023-03-11T05:46:48.713Z,99.90
2023-03-11T05:49:15.848Z,99.90
2023-03-11T05:51:43.076Z,99.90
2023-03-11T05:54:15.026Z,99.90
2023-03-11T05:56:46.062Z,99.90
2023-03-11T05:59:16.496Z,99.90
2023-03-11T06:01:45.787Z,99.90
2023-03-11T06:04:13.293Z,99.90
2023-03-11T06:06:41.595Z,99.90
2023-03-11T06:09:14.582Z,99.90
2023-03-11T06:11:43.050Z,99.90
2023-03-11T06:14:14.022Z,99.90
2023-03-11T06:16:43.140Z,99.90
2023-03-11T06:19:11.150Z,99.90
2023-03-11T06:21:42.889Z,99.90
2023-03-11T06:24:10.555Z,99.90
2023-03-11T06:26:38.867Z,99.90
2023-03-11T06:29:13.042Z,99.90
2023-03-11T06:31:41.551Z,99.90
2023-03-11T06:34:12.247Z,99.90
2023-03-11T06:36:39.799Z,99.90
2023-03-11T06:39:07.050Z,99.90
2023-03-11T06:41:36.676Z,99.90
2023-03-11T06:44:05.909Z,99.90
2023-03-11T06:46:34.185Z,99.90
2023-03-11T06:49:01.742Z,99.90
2023-03-11T06:51:30.226Z,99.90
2023-03-11T06:53:57.479Z,99.90
2023-03-11T06:56:26.315Z,99.90
2023-03-11T06:58:58.471Z,99.90
2023-03-11T07:01:30.048Z,99.90
2023-03-11T07:04:00.241Z,99.90
2023-03-11T07:06:28.936Z,99.90
2023-03-11T07:09:07.414Z,99.90
2023-03-11T07:11:38.241Z,99.90
2023-03-11T07:14:12.190Z,99.90
2023-03-11T07:16:43.691Z,99.90
2023-03-11T07:19:17.846Z,99.90
2023-03-11T07:21:45.087Z,99.90
2023-03-11T07:24:14.381Z,99.90
2023-03-11T07:26:44.271Z,99.90
2023-03-11T07:29:11.728Z,99.90
2023-03-11T07:31:39.132Z,99.90
2023-03-11T07:34:11.378Z,99.90
2023-03-11T07:36:42.487Z,99.90
2023-03-11T07:39:16.250Z,99.90
2023-03-11T07:41:44.645Z,99.90
2023-03-11T07:44:16.293Z,99.90
2023-03-11T07:46:44.470Z,99.90
2023-03-11T07:49:12.129Z,99.90
2023-03-11T07:51:43.923Z,99.90
2023-03-11T07:54:12.855Z,99.90
2023-03-11T07:56:40.701Z,99.90
2023-03-11T07:59:08.061Z,99.90
2023-03-11T08:01:40.980Z,99.90
2023-03-11T08:04:14.406Z,99.90
2023-03-11T08:06:44.884Z,99.90
2023-03-11T08:09:12.817Z,99.90
2023-03-11T08:11:39.949Z,99.90
2023-03-11T08:14:07.360Z,99.90
2023-03-11T08:16:34.886Z,99.90
2023-03-11T08:19:02.241Z,99.90
2023-03-11T08:21:32.091Z,99.90
2023-03-11T08:24:01.919Z,99.90
2023-03-11T08:26:30.935Z,99.90
2023-03-11T08:28:59.381Z,99.90
2023-03-11T08:31:30.255Z,99.90
2023-03-11T08:34:08.176Z,99.90
2023-03-11T08:36:35.739Z,99.90
2023-03-11T08:39:03.656Z,99.90
2023-03-11T08:41:30.879Z,99.90
2023-03-11T08:43:58.099Z,99.90
2023-03-11T08:46:31.230Z,99.90
2023-03-11T08:49:01.011Z,99.90
2023-03-11T08:51:31.081Z,99.90
2023-03-11T08:53:58.981Z,99.90
2023-03-11T08:56:26.354Z,99.90
2023-03-11T08:58:53.639Z,99.90
2023-03-11T09:01:21.183Z,99.90
2023-03-11T09:03:48.589Z,99.90
2023-03-11T09:06:17.254Z,99.90
2023-03-11T09:08:46.120Z,99.90
2023-03-11T09:11:14.782Z,99.90
2023-03-11T09:13:43.576Z,99.90
2023-03-11T09:16:23.676Z,99.90
2023-03-11T09:18:51.182Z,99.90
2023-03-11T09:21:18.655Z,99.90
2023-03-11T09:23:46.402Z,99.90
2023-03-11T09:26:14.595Z,99.90
2023-03-11T09:28:43.146Z,99.90
2023-03-11T09:31:10.379Z,99.90
2023-03-11T09:33:40.603Z,99.90
2023-03-11T09:36:12.516Z,99.90
2023-03-11T09:38:39.736Z,99.90
2023-03-11T09:41:18.765Z,99.90
2023-03-11T09:44:32.990Z,99.90
2023-03-11T09:47:25.651Z,99.90
2023-03-11T09:50:26.750Z,99.90
2023-03-11T09:53:19.061Z,99.90
2023-03-11T09:55:50.688Z,99.90
2023-03-11T09:58:54.458Z,99.90
2023-03-11T10:01:33.279Z,99.90
2023-03-11T10:05:01.795Z,99.90
2023-03-11T10:07:39.737Z,99.90
2023-03-11T10:10:14.595Z,99.90
2023-03-11T10:12:48.325Z,99.90
2023-03-11T10:15:50.098Z,99.90
2023-03-11T10:18:50.599Z,99.90
2023-03-11T10:21:47.977Z,99.90
2023-03-11T10:24:49.413Z,99.90
2023-03-11T10:27:40.392Z,99.90
2023-03-11T10:30:26.782Z,99.90
2023-03-11T10:33:26.318Z,99.90
2023-03-11T10:35:57.858Z,99.90
2023-03-11T10:38:42.803Z,99.90
2023-03-11T10:41:37.600Z,99.90
2023-03-11T10:44:14.410Z,99.90
2023-03-11T10:46:41.692Z,99.90
2023-03-11T10:49:16.029Z,99.90
2023-03-11T10:51:49.975Z,99.90
2023-03-11T10:54:34.948Z,99.90
2023-03-11T10:57:22.656Z,99.90
2023-03-11T11:00:01.773Z,99.90
2023-03-11T11:02:31.714Z,99.90
2023-03-11T11:05:17.495Z,99.90
2023-03-11T11:07:47.182Z,99.90
2023-03-11T11:10:23.312Z,99.90
2023-03-11T11:13:02.526Z,99.90
2023-03-11T11:15:33.490Z,99.90
2023-03-11T11:18:14.809Z,99.90
2023-03-11T11:21:13.776Z,99.90
2023-03-11T11:23:44.521Z,99.90
2023-03-11T11:26:26.080Z,98.90
2023-03-11T11:29:11.429Z,99.10
2023-03-11T11:31:45.036Z,99.90
2023-03-11T11:34:34.548Z,99.90
2023-03-11T11:37:04.909Z,97.80
2023-03-11T11:39:51.641Z,95.90
2023-03-11T11:42:20.646Z,93.00
2023-03-11T11:44:53.469Z,93.10
2023-03-11T11:47:34.531Z,94.40
2023-03-11T11:50:07.223Z,93.00
2023-03-11T11:52:50.992Z,94.40
2023-03-11T11:55:24.260Z,93.10
2023-03-11T11:57:52.138Z,92.30
2023-03-11T12:00:46.919Z,91.90
2023-03-11T12:03:38.713Z,90.80
2023-03-11T12:06:18.944Z,84.30
2023-03-11T12:09:24.301Z,78.80
2023-03-11T12:12:32.959Z,79.20
2023-03-11T12:15:23.676Z,80.70
2023-03-11T12:17:54.881Z,83.40
2023-03-11T12:20:37.521Z,80.80
2023-03-11T12:23:15.778Z,79.10
2023-03-11T12:26:23.055Z,75.50
2023-03-11T12:29:26.914Z,69.30
2023-03-11T12:31:57.289Z,67.70
2023-03-11T12:34:28.172Z,70.80
2023-03-11T12:37:03.279Z,70.90
2023-03-11T12:39:35.059Z,71.50
2023-03-11T12:42:10.967Z,71.30
2023-03-11T12:44:42.087Z,70.50
2023-03-11T12:47:09.900Z,69.90
2023-03-11T12:49:44.087Z,64.60
2023-03-11T12:52:14.222Z,61.40
2023-03-11T12:54:44.331Z,61.90
2023-03-11T12:57:17.633Z,62.70
2023-03-11T13:00:25.126Z,62.60
2023-03-11T13:03:16.705Z,64.20
2023-03-11T13:06:13.222Z,62.20
2023-03-11T13:08:55.454Z,61.60
2023-03-11T13:11:41.601Z,60.40
2023-03-11T13:14:33.345Z,62.10
2023-03-11T13:17:27.512Z,61.40
2023-03-11T13:19:57.461Z,59.80
2023-03-11T13:22:47.561Z,59.20
2023-03-11T13:25:28.351Z,57.70
2023-03-11T13:28:06.798Z,55.80
2023-03-11T13:30:41.391Z,56.30
2023-03-11T13:33:21.950Z,56.30
2023-03-11T13:36:24.780Z,55.10
2023-03-11T13:39:26.186Z,55.30
2023-03-11T13:41:53.849Z,54.90
2023-03-11T13:44:24.485Z,53.10
2023-03-11T13:47:07.865Z,53.40
2023-03-11T13:50:06.547Z,51.80
2023-03-11T13:52:43.771Z,50.10
2023-03-11T13:55:34.523Z,49.40
2023-03-11T13:58:14.919Z,47.30
2023-03-11T14:00:56.465Z,45.70
2023-03-11T14:03:26.306Z,46.90
2023-03-11T14:06:04.779Z,46.70
2023-03-11T14:08:38.189Z,50.40
2023-03-11T14:11:10.439Z,50.20
2023-03-11T14:13:43.114Z,50.10
2023-03-11T14:16:20.290Z,52.20
2023-03-11T14:19:01.399Z,55.80
2023-03-11T14:21:30.344Z,58.10
2023-03-11T14:23:57.904Z,58.40
2023-03-11T14:26:34.169Z,60.30
2023-03-11T14:29:12.338Z,61.80
2023-03-11T14:31:44.060Z,65.30
2023-03-11T14:34:18.465Z,66.40
2023-03-11T14:36:58.980Z,68.40
2023-03-11T14:39:36.125Z,70.00
2023-03-11T14:42:28.243Z,71.40
2023-03-11T14:45:08.027Z,71.10
2023-03-11T14:47:46.402Z,72.00
2023-03-11T14:50:32.832Z,72.80
2023-03-11T14:53:10.158Z,73.30
2023-03-11T14:55:53.464Z,74.50
2023-03-11T14:58:40.740Z,75.00
2023-03-11T15:01:31.541Z,76.00
2023-03-11T15:04:09.871Z,76.80
2023-03-11T15:06:45.183Z,77.90
2023-03-11T15:09:20.154Z,78.90
2023-03-11T15:12:04.249Z,79.90
2023-03-11T15:14:35.577Z,81.10
2023-03-11T15:17:41.311Z,82.60
2023-03-11T15:20:35.081Z,83.60
2023-03-11T15:23:06.010Z,85.20
2023-03-11T15:25:38.307Z,86.50
2023-03-11T15:28:28.521Z,87.50
2023-03-11T15:31:31.444Z,88.90
2023-03-11T15:34:21.420Z,89.80
2023-03-11T15:36:48.685Z,90.50
2023-03-11T15:39:36.266Z,91.10
2023-03-11T15:42:22.970Z,91.60
2023-03-11T15:45:15.886Z,92.20
2023-03-11T15:47:44.410Z,92.90
2023-03-11T15:50:24.774Z,93.40
2023-03-11T15:52:55.555Z,94.00
2023-03-11T15:55:25.716Z,94.40
2023-03-11T15:58:15.794Z,94.80
2023-03-11T16:00:49.764Z,95.40
2023-03-11T16:03:44.332Z,95.60
2023-03-11T16:06:26.140Z,95.80
2023-03-11T16:08:54.224Z,96.30
2023-03-11T16:11:21.786Z,96.90
2023-03-11T16:13:49.249Z,96.90
2023-03-11T16:16:17.618Z,97.20
2023-03-11T16:18:45.186Z,97.40
2023-03-11T16:21:18.921Z,97.60
2023-03-11T16:23:51.962Z,98.60
2023-03-11T16:26:21.893Z,99.90
2023-03-11T16:28:49.251Z,99.90
2023-03-11T16:31:16.788Z,99.90
2023-03-11T16:33:44.254Z,99.90
2023-03-11T16:36:12.170Z,99.90
2023-03-11T16:38:49.120Z,99.90
2023-03-11T16:41:17.530Z,99.90
2023-03-11T16:43:45.329Z,99.90
2023-03-11T16:46:12.762Z,99.90
2023-03-11T16:48:40.145Z,99.90
2023-03-11T16:51:07.941Z,99.90
2023-03-11T16:53:35.283Z,99.90
2023-03-11T16:56:02.897Z,99.90
2023-03-11T16:58:30.333Z,99.90
2023-03-11T17:00:57.698Z,99.90
2023-03-11T17:03:27.556Z,99.90
2023-03-11T17:06:04.214Z,99.90
2023-03-11T17:08:32.105Z,99.90
2023-03-11T17:10:59.656Z,99.90
2023-03-11T17:13:27.495Z,99.90
2023-03-11T17:16:02.646Z,99.90
2023-03-11T17:18:30.170Z,99.90
2023-03-11T17:20:57.563Z,99.90
2023-03-11T17:23:25.022Z,99.90
2023-03-11T17:25:52.532Z,99.90
2023-03-11T17:28:20.076Z,99.90
2023-03-11T17:30:47.509Z,99.90
2023-03-11T17:33:14.944Z,99.90
2023-03-11T17:35:42.711Z,99.90
2023-03-11T17:38:11.073Z,99.90
2023-03-11T17:40:38.670Z,99.90
2023-03-11T17:43:06.120Z,99.90
2023-03-11T17:45:33.469Z,99.90
2023-03-11T17:48:00.868Z,99.90
2023-03-11T17:50:28.412Z,99.90
2023-03-11T17:52:56.622Z,99.90
2023-03-11T17:55:24.218Z,99.90
2023-03-11T17:57:53.459Z,99.90
2023-03-11T18:00:21.920Z,99.90
2023-03-11T18:02:51.381Z,99.90
2023-03-11T18:05:19.625Z,99.90
2023-03-11T18:07:47.340Z,99.90
2023-03-11T18:10:15.878Z,99.90
2023-03-11T18:12:47.868Z,99.90
2023-03-11T18:15:19.090Z,99.90
2023-03-11T18:17:47.459Z,99.90
2023-03-11T18:20:16.325Z,99.90
2023-03-11T18:22:46.767Z,99.90
2023-03-11T18:25:14.773Z,99.90
2023-03-11T18:27:42.167Z,99.90
2023-03-11T18:30:11.313Z,99.90
2023-03-11T18:32:38.801Z,99.90
2023-03-11T18:35:06.921Z,99.90
2023-03-11T18:37:34.393Z,99.90
2023-03-11T18:40:02.140Z,99.90
2023-03-11T18:42:29.596Z,99.90
2023-03-11T18:44:56.992Z,99.90
2023-03-11T18:47:24.537Z,99.90
2023-03-11T18:49:51.932Z,99.90
2023-03-11T18:52:19.212Z,99.90
2023-03-11T18:54:46.583Z,99.90
2023-03-11T18:57:13.939Z,99.90
2023-03-11T18:59:41.461Z,99.90
2023-03-11T19:02:11.071Z,99.90
2023-03-11T19:04:39.589Z,99.90
2023-03-11T19:07:07.224Z,99.90
2023-03-11T19:09:34.993Z,99.90
2023-03-11T19:12:02.388Z,99.90
2023-03-11T19:14:29.812Z,99.90
2023-03-11T19:16:57.255Z,99.90
2023-03-11T19:19:24.746Z,99.90
2023-03-11T19:21:52.205Z,99.90
2023-03-11T19:24:19.728Z,99.90
2023-03-11T19:26:47.123Z,99.90
2023-03-11T19:29:15.019Z,99.90
2023-03-11T19:31:43.801Z,99.90
2023-03-11T19:34:11.810Z,99.90
2023-03-11T19:36:41.592Z,99.90
2023-03-11T19:39:09.123Z,99.90
2023-03-11T19:41:36.379Z,99.90
2023-03-11T19:44:05.050Z,99.90
2023-03-11T19:46:34.796Z,99.90
2023-03-11T19:49:03.480Z,99.90
2023-03-11T19:51:46.427Z,99.90
2023-03-11T19:54:16.562Z,99.90
2023-03-11T19:56:44.203Z,99.90
2023-03-11T19:59:12.279Z,99.90
2023-03-11T20:01:42.095Z,99.90
2023-03-11T20:04:10.753Z,99.90
2023-03-11T20:06:38.138Z,99.90
2023-03-11T20:09:06.909Z,99.90
2023-03-11T20:11:39.743Z,99.90
2023-03-11T20:14:08.206Z,99.90
2023-03-11T20:16:36.333Z,99.90
2023-03-11T20:19:04.497Z,99.90
2023-03-11T20:21:32.306Z,99.90
2023-03-11T20:24:00.306Z,99.90
2023-03-11T20:26:27.717Z,99.90
2023-03-11T20:28:56.474Z,99.90
2023-03-11T20:31:26.737Z,99.90
2023-03-11T20:33:55.187Z,99.90
2023-03-11T20:36:27.785Z,99.90
2023-03-11T20:38:56.569Z,99.90
2023-03-11T20:41:26.540Z,99.90
2023-03-11T20:43:56.254Z,99.90
2023-03-11T20:46:24.577Z,99.90
2023-03-11T20:48:52.280Z,99.90
2023-03-11T20:51:21.015Z,99.90
2023-03-11T20:53:49.611Z,99.90
2023-03-11T20:56:23.917Z,99.90
2023-03-11T20:58:55.521Z,99.90
2023-03-11T21:01:40.719Z,99.90
2023-03-11T21:04:56.077Z,99.90
2023-03-11T21:07:41.272Z,99.90
2023-03-11T21:10:12.317Z,99.90
2023-03-11T21:12:40.231Z,99.90
2023-03-11T21:15:09.983Z,99.90
2023-03-11T21:17:38.576Z,99.90
2023-03-11T21:20:07.509Z,99.90
2023-03-11T21:22:35.172Z,99.90
2023-03-11T21:25:03.285Z,99.90
2023-03-11T21:27:30.831Z,99.90
2023-03-11T21:29:59.780Z,99.90
2023-03-11T21:32:28.700Z,99.90
2023-03-11T21:35:00.969Z,99.90
2023-03-11T21:37:29.672Z,99.90
2023-03-11T21:39:57.784Z,99.90
2023-03-11T21:42:25.815Z,99.90
2023-03-11T21:44:53.693Z,99.90
2023-03-11T21:47:21.565Z,99.90
2023-03-11T21:49:49.252Z,99.90
2023-03-11T21:52:17.377Z,99.90
2023-03-11T21:54:45.201Z,99.90
2023-03-11T21:57:13.089Z,99.90
2023-03-11T21:59:40.749Z,99.90
2023-03-11T22:02:15.924Z,99.90
2023-03-11T22:04:43.802Z,99.90
2023-03-11T22:07:11.682Z,99.90
2023-03-11T22:09:39.195Z,99.90
2023-03-11T22:12:07.282Z,99.90
2023-03-11T22:14:35.152Z,99.90
2023-03-11T22:17:02.777Z,99.90
2023-03-11T22:19:30.606Z,99.90
2023-03-11T22:21:58.042Z,99.90
2023-03-11T22:24:25.604Z,99.90
2023-03-11T22:26:53.257Z,99.90
2023-03-11T22:29:20.784Z,99.90
2023-03-11T22:31:48.416Z,99.90
2023-03-11T22:34:15.924Z,99.90
2023-03-11T22:36:43.384Z,99.90
2023-03-11T22:39:11.995Z,99.90
2023-03-11T22:41:39.505Z,99.90
2023-03-11T22:44:09.995Z,99.90
2023-03-11T22:46:37.416Z,99.90
2023-03-11T22:49:05.074Z,99.90
2023-03-11T22:51:32.771Z,99.90
2023-03-11T22:54:00.301Z,99.90
2023-03-11T22:56:28.175Z,99.90
2023-03-11T22:58:55.549Z,99.90
2023-03-11T23:01:23.400Z,99.90
2023-03-11T23:03:51.000Z,99.90
2023-03-11T23:06:21.042Z,99.90
2023-03-11T23:08:49.276Z,99.90
2023-03-11T23:11:21.297Z,99.90
2023-03-11T23:13:49.794Z,99.90
2023-03-11T23:16:23.546Z,99.90
2023-03-11T23:18:54.588Z,99.90
2023-03-11T23:21:25.703Z,99.90
2023-03-11T23:23:56.021Z,99.90
2023-03-11T23:26:24.281Z,99.90
2023-03-11T23:28:51.916Z,99.90
2023-03-11T23:31:22.785Z,99.90
2023-03-11T23:33:50.457Z,99.90
2023-03-11T23:36:21.364Z,99.90
2023-03-11T23:38:50.956Z,99.90
2023-03-11T23:41:21.489Z,99.90
2023-03-11T23:43:49.090Z,99.90
2023-03-11T23:46:17.313Z,99.90
2023-03-11T23:48:45.146Z,99.90
2023-03-11T23:51:12.926Z,99.90
2023-03-11T23:53:40.672Z,99.90
2023-03-11T23:56:18.312Z,99.90
2023-03-11T23:58:46.815Z,99.90
